sensor_id;sensor_type;location;lat;lon;timestamp;P1;durP1;ratioP1;P2;durP2;ratioP2
78027;SDS011;67235;45.638;11.714;2023-06-01T00:01:59;12.07;;;6.60;;
78027;SDS011;67235;45.638;11.714;2023-06-01T00:04:25;13.98;;;6.85;;
78027;SDS011;67235;45.638;11.714;2023-06-01T00:06:51;12.80;;;6.90;;
78027;SDS011;67235;45.638;11.714;2023-06-01T00:09:17;13.38;;;6.63;;
78027;SDS011;67235;45.638;11.714;2023-06-01T00:11:43;11.40;;;6.50;;
78027;SDS011;67235;45.638;11.714;2023-06-01T00:14:09;14.02;;;7.38;;
78027;SDS011;67235;45.638;11.714;2023-06-01T00:16:35;13.20;;;6.63;;
78027;SDS011;67235;45.638;11.714;2023-06-01T00:19:01;12.57;;;7.15;;
78027;SDS011;67235;45.638;11.714;2023-06-01T00:21:28;12.07;;;7.17;;
78027;SDS011;67235;45.638;11.714;2023-06-01T00:23:56;15.23;;;7.57;;
78027;SDS011;67235;45.638;11.714;2023-06-01T00:26:22;13.63;;;7.40;;
78027;SDS011;67235;45.638;11.714;2023-06-01T00:28:48;12.73;;;7.43;;
78027;SDS011;67235;45.638;11.714;2023-06-01T00:31:14;12.60;;;8.05;;
78027;SDS011;67235;45.638;11.714;2023-06-01T00:33:40;14.57;;;7.70;;
78027;SDS011;67235;45.638;11.714;2023-06-01T00:36:06;14.05;;;7.82;;
78027;SDS011;67235;45.638;11.714;2023-06-01T00:38:32;14.93;;;7.10;;
78027;SDS011;67235;45.638;11.714;2023-06-01T00:40:58;13.93;;;7.10;;
78027;SDS011;67235;45.638;11.714;2023-06-01T00:43:24;12.82;;;7.90;;
78027;SDS011;67235;45.638;11.714;2023-06-01T00:45:50;13.98;;;8.10;;
78027;SDS011;67235;45.638;11.714;2023-06-01T00:48:16;13.93;;;8.07;;
78027;SDS011;67235;45.638;11.714;2023-06-01T00:50:43;13.15;;;8.02;;
78027;SDS011;67235;45.638;11.714;2023-06-01T00:53:11;14.70;;;7.82;;
78027;SDS011;67235;45.638;11.714;2023-06-01T00:55:42;15.98;;;8.30;;
78027;SDS011;67235;45.638;11.714;2023-06-01T00:58:08;13.30;;;7.50;;
78027;SDS011;67235;45.638;11.714;2023-06-01T01:00:35;13.38;;;8.02;;
78027;SDS011;67235;45.638;11.714;2023-06-01T01:03:03;12.65;;;8.10;;
78027;SDS011;67235;45.638;11.714;2023-06-01T01:05:32;13.68;;;7.90;;
78027;SDS011;67235;45.638;11.714;2023-06-01T01:10:50;16.87;;;8.43;;
78027;SDS011;67235;45.638;11.714;2023-06-01T01:13:31;13.82;;;8.20;;
78027;SDS011;67235;45.638;11.714;2023-06-01T01:16:07;19.05;;;8.13;;
78027;SDS011;67235;45.638;11.714;2023-06-01T01:18:50;13.20;;;8.10;;
78027;SDS011;67235;45.638;11.714;2023-06-01T01:21:25;12.88;;;8.32;;
78027;SDS011;67235;45.638;11.714;2023-06-01T01:24:13;13.63;;;8.00;;
78027;SDS011;67235;45.638;11.714;2023-06-01T01:29:31;17.35;;;8.70;;
78027;SDS011;67235;45.638;11.714;2023-06-01T01:31:58;17.02;;;8.95;;
78027;SDS011;67235;45.638;11.714;2023-06-01T01:34:26;16.73;;;9.43;;
78027;SDS011;67235;45.638;11.714;2023-06-01T01:36:54;14.67;;;9.40;;
78027;SDS011;67235;45.638;11.714;2023-06-01T01:39:20;16.58;;;9.15;;
78027;SDS011;67235;45.638;11.714;2023-06-01T01:41:46;16.85;;;9.05;;
78027;SDS011;67235;45.638;11.714;2023-06-01T01:44:12;15.83;;;9.83;;
78027;SDS011;67235;45.638;11.714;2023-06-01T01:46:59;16.05;;;9.73;;
78027;SDS011;67235;45.638;11.714;2023-06-01T01:50:05;15.80;;;9.38;;
78027;SDS011;67235;45.638;11.714;2023-06-01T01:52:41;17.52;;;9.57;;
78027;SDS011;67235;45.638;11.714;2023-06-01T01:55:08;16.98;;;10.52;;
78027;SDS011;67235;45.638;11.714;2023-06-01T01:57:36;17.63;;;10.50;;
78027;SDS011;67235;45.638;11.714;2023-06-01T02:00:03;17.48;;;10.25;;
78027;SDS011;67235;45.638;11.714;2023-06-01T02:02:31;17.40;;;10.50;;
78027;SDS011;67235;45.638;11.714;2023-06-01T02:04:56;17.73;;;10.02;;
78027;SDS011;67235;45.638;11.714;2023-06-01T02:07:22;18.47;;;10.37;;
78027;SDS011;67235;45.638;11.714;2023-06-01T02:09:48;15.93;;;10.20;;
78027;SDS011;67235;45.638;11.714;2023-06-01T02:12:14;16.25;;;10.48;;
78027;SDS011;67235;45.638;11.714;2023-06-01T02:14:40;18.33;;;11.18;;
78027;SDS011;67235;45.638;11.714;2023-06-01T02:17:06;17.83;;;10.60;;
78027;SDS011;67235;45.638;11.714;2023-06-01T02:19:33;15.55;;;9.88;;
78027;SDS011;67235;45.638;11.714;2023-06-01T02:21:59;20.63;;;10.77;;
78027;SDS011;67235;45.638;11.714;2023-06-01T02:24:25;20.02;;;11.25;;
78027;SDS011;67235;45.638;11.714;2023-06-01T02:26:50;18.27;;;10.47;;
78027;SDS011;67235;45.638;11.714;2023-06-01T02:29:20;17.02;;;10.80;;
78027;SDS011;67235;45.638;11.714;2023-06-01T02:31:50;18.25;;;10.23;;
78027;SDS011;67235;45.638;11.714;2023-06-01T02:34:16;15.57;;;9.77;;
78027;SDS011;67235;45.638;11.714;2023-06-01T02:36:42;18.83;;;10.60;;
78027;SDS011;67235;45.638;11.714;2023-06-01T02:39:08;19.98;;;10.80;;
78027;SDS011;67235;45.638;11.714;2023-06-01T02:41:34;16.45;;;10.30;;
78027;SDS011;67235;45.638;11.714;2023-06-01T02:44:00;18.27;;;9.90;;
78027;SDS011;67235;45.638;11.714;2023-06-01T02:46:27;17.67;;;10.90;;
78027;SDS011;67235;45.638;11.714;2023-06-01T02:48:53;18.33;;;11.20;;
78027;SDS011;67235;45.638;11.714;2023-06-01T02:51:19;17.27;;;9.77;;
78027;SDS011;67235;45.638;11.714;2023-06-01T02:53:45;17.55;;;10.68;;
78027;SDS011;67235;45.638;11.714;2023-06-01T02:56:14;17.52;;;11.35;;
78027;SDS011;67235;45.638;11.714;2023-06-01T02:58:40;17.20;;;10.73;;
78027;SDS011;67235;45.638;11.714;2023-06-01T03:01:07;19.63;;;11.07;;
78027;SDS011;67235;45.638;11.714;2023-06-01T03:03:37;19.35;;;10.00;;
78027;SDS011;67235;45.638;11.714;2023-06-01T03:06:05;19.25;;;10.73;;
78027;SDS011;67235;45.638;11.714;2023-06-01T03:08:31;18.15;;;10.63;;
78027;SDS011;67235;45.638;11.714;2023-06-01T03:10:59;18.60;;;10.35;;
78027;SDS011;67235;45.638;11.714;2023-06-01T03:13:25;15.77;;;10.20;;
78027;SDS011;67235;45.638;11.714;2023-06-01T03:15:51;18.02;;;10.98;;
78027;SDS011;67235;45.638;11.714;2023-06-01T03:18:16;18.70;;;10.15;;
78027;SDS011;67235;45.638;11.714;2023-06-01T03:20:42;19.10;;;10.53;;
78027;SDS011;67235;45.638;11.714;2023-06-01T03:23:08;16.70;;;11.18;;
78027;SDS011;67235;45.638;11.714;2023-06-01T03:25:34;16.55;;;9.98;;
78027;SDS011;67235;45.638;11.714;2023-06-01T03:28:00;17.27;;;10.37;;
78027;SDS011;67235;45.638;11.714;2023-06-01T03:30:26;16.17;;;10.52;;
78027;SDS011;67235;45.638;11.714;2023-06-01T03:32:52;16.73;;;10.35;;
78027;SDS011;67235;45.638;11.714;2023-06-01T03:35:18;18.33;;;11.57;;
78027;SDS011;67235;45.638;11.714;2023-06-01T03:37:44;18.73;;;11.43;;
78027;SDS011;67235;45.638;11.714;2023-06-01T03:40:12;21.35;;;11.45;;
78027;SDS011;67235;45.638;11.714;2023-06-01T03:45:06;16.33;;;10.45;;
78027;SDS011;67235;45.638;11.714;2023-06-01T03:47:33;18.10;;;11.85;;
78027;SDS011;67235;45.638;11.714;2023-06-01T03:50:00;18.10;;;10.68;;
78027;SDS011;67235;45.638;11.714;2023-06-01T03:52:26;17.85;;;11.35;;
78027;SDS011;67235;45.638;11.714;2023-06-01T03:54:54;20.13;;;11.10;;
78027;SDS011;67235;45.638;11.714;2023-06-01T03:57:21;16.90;;;11.05;;
78027;SDS011;67235;45.638;11.714;2023-06-01T03:59:47;18.55;;;11.20;;
78027;SDS011;67235;45.638;11.714;2023-06-01T04:02:13;18.48;;;10.88;;
78027;SDS011;67235;45.638;11.714;2023-06-01T04:04:39;18.55;;;10.82;;
78027;SDS011;67235;45.638;11.714;2023-06-01T04:07:06;16.52;;;9.73;;
78027;SDS011;67235;45.638;11.714;2023-06-01T04:09:34;18.55;;;9.95;;
78027;SDS011;67235;45.638;11.714;2023-06-01T04:12:02;16.00;;;10.43;;
78027;SDS011;67235;45.638;11.714;2023-06-01T04:14:29;14.65;;;8.73;;
78027;SDS011;67235;45.638;11.714;2023-06-01T04:16:55;15.93;;;8.80;;
78027;SDS011;67235;45.638;11.714;2023-06-01T04:19:21;17.55;;;9.80;;
78027;SDS011;67235;45.638;11.714;2023-06-01T04:21:47;14.82;;;9.02;;
78027;SDS011;67235;45.638;11.714;2023-06-01T04:24:13;13.70;;;8.90;;
78027;SDS011;67235;45.638;11.714;2023-06-01T04:26:38;14.35;;;9.60;;
78027;SDS011;67235;45.638;11.714;2023-06-01T04:29:04;14.98;;;9.85;;
78027;SDS011;67235;45.638;11.714;2023-06-01T04:31:30;14.40;;;8.90;;
78027;SDS011;67235;45.638;11.714;2023-06-01T04:33:57;13.65;;;8.77;;
78027;SDS011;67235;45.638;11.714;2023-06-01T04:36:29;15.88;;;9.35;;
78027;SDS011;67235;45.638;11.714;2023-06-01T04:38:57;14.50;;;9.25;;
78027;SDS011;67235;45.638;11.714;2023-06-01T04:41:23;14.30;;;9.23;;
78027;SDS011;67235;45.638;11.714;2023-06-01T04:43:54;14.40;;;8.38;;
78027;SDS011;67235;45.638;11.714;2023-06-01T04:46:20;13.93;;;8.20;;
78027;SDS011;67235;45.638;11.714;2023-06-01T04:48:51;13.77;;;8.27;;
78027;SDS011;67235;45.638;11.714;2023-06-01T04:51:18;13.63;;;9.50;;
78027;SDS011;67235;45.638;11.714;2023-06-01T04:53:49;16.80;;;10.23;;
78027;SDS011;67235;45.638;11.714;2023-06-01T04:56:23;16.17;;;10.38;;
78027;SDS011;67235;45.638;11.714;2023-06-01T04:58:50;14.68;;;9.43;;
78027;SDS011;67235;45.638;11.714;2023-06-01T05:01:17;14.63;;;9.25;;
78027;SDS011;67235;45.638;11.714;2023-06-01T05:03:43;14.45;;;9.13;;
78027;SDS011;67235;45.638;11.714;2023-06-01T05:06:10;13.57;;;8.37;;
78027;SDS011;67235;45.638;11.714;2023-06-01T05:08:40;11.82;;;8.40;;
78027;SDS011;67235;45.638;11.714;2023-06-01T05:11:07;14.27;;;8.93;;
78027;SDS011;67235;45.638;11.714;2023-06-01T05:13:34;15.45;;;8.23;;
78027;SDS011;67235;45.638;11.714;2023-06-01T05:16:02;14.02;;;8.45;;
78027;SDS011;67235;45.638;11.714;2023-06-01T05:18:28;12.43;;;8.27;;
78027;SDS011;67235;45.638;11.714;2023-06-01T05:20:54;17.45;;;8.65;;
78027;SDS011;67235;45.638;11.714;2023-06-01T05:23:20;15.30;;;9.13;;
78027;SDS011;67235;45.638;11.714;2023-06-01T05:25:46;12.33;;;9.00;;
78027;SDS011;67235;45.638;11.714;2023-06-01T05:28:12;14.18;;;9.55;;
78027;SDS011;67235;45.638;11.714;2023-06-01T05:30:37;15.68;;;8.77;;
78027;SDS011;67235;45.638;11.714;2023-06-01T05:33:03;14.30;;;9.57;;
78027;SDS011;67235;45.638;11.714;2023-06-01T05:35:29;16.50;;;9.10;;
78027;SDS011;67235;45.638;11.714;2023-06-01T05:37:55;14.87;;;9.03;;
78027;SDS011;67235;45.638;11.714;2023-06-01T05:40:21;13.25;;;8.25;;
78027;SDS011;67235;45.638;11.714;2023-06-01T05:42:47;12.13;;;8.00;;
78027;SDS011;67235;45.638;11.714;2023-06-01T05:45:13;15.73;;;9.70;;
78027;SDS011;67235;45.638;11.714;2023-06-01T05:47:39;16.02;;;10.85;;
78027;SDS011;67235;45.638;11.714;2023-06-01T05:50:05;16.52;;;11.20;;
78027;SDS011;67235;45.638;11.714;2023-06-01T05:52:31;17.15;;;11.68;;
78027;SDS011;67235;45.638;11.714;2023-06-01T05:54:57;18.07;;;11.97;;
78027;SDS011;67235;45.638;11.714;2023-06-01T05:57:23;19.73;;;12.57;;
78027;SDS011;67235;45.638;11.714;2023-06-01T05:59:49;18.98;;;13.02;;
78027;SDS011;67235;45.638;11.714;2023-06-01T06:02:14;19.50;;;12.57;;
78027;SDS011;67235;45.638;11.714;2023-06-01T06:04:41;17.77;;;11.93;;
78027;SDS011;67235;45.638;11.714;2023-06-01T06:07:09;18.00;;;12.32;;
78027;SDS011;67235;45.638;11.714;2023-06-01T06:09:34;18.33;;;11.88;;
78027;SDS011;67235;45.638;11.714;2023-06-01T06:12:00;16.83;;;10.87;;
78027;SDS011;67235;45.638;11.714;2023-06-01T06:14:26;15.40;;;10.00;;
78027;SDS011;67235;45.638;11.714;2023-06-01T06:16:52;14.70;;;9.40;;
78027;SDS011;67235;45.638;11.714;2023-06-01T06:19:18;13.68;;;8.93;;
78027;SDS011;67235;45.638;11.714;2023-06-01T06:21:44;14.17;;;8.10;;
78027;SDS011;67235;45.638;11.714;2023-06-01T06:24:10;13.77;;;8.10;;
78027;SDS011;67235;45.638;11.714;2023-06-01T06:26:37;10.77;;;6.95;;
78027;SDS011;67235;45.638;11.714;2023-06-01T06:29:02;13.43;;;8.10;;
78027;SDS011;67235;45.638;11.714;2023-06-01T06:31:28;12.25;;;8.20;;
78027;SDS011;67235;45.638;11.714;2023-06-01T06:33:54;12.98;;;7.57;;
78027;SDS011;67235;45.638;11.714;2023-06-01T06:36:20;12.27;;;7.57;;
78027;SDS011;67235;45.638;11.714;2023-06-01T06:38:46;12.98;;;7.07;;
78027;SDS011;67235;45.638;11.714;2023-06-01T06:41:12;13.02;;;7.82;;
78027;SDS011;67235;45.638;11.714;2023-06-01T06:43:38;15.93;;;8.20;;
78027;SDS011;67235;45.638;11.714;2023-06-01T06:46:04;11.50;;;7.40;;
78027;SDS011;67235;45.638;11.714;2023-06-01T06:48:30;11.90;;;7.55;;
78027;SDS011;67235;45.638;11.714;2023-06-01T06:50:56;11.43;;;7.13;;
78027;SDS011;67235;45.638;11.714;2023-06-01T06:53:22;12.70;;;8.53;;
78027;SDS011;67235;45.638;11.714;2023-06-01T06:55:48;14.80;;;7.80;;
78027;SDS011;67235;45.638;11.714;2023-06-01T06:58:16;14.95;;;8.45;;
78027;SDS011;67235;45.638;11.714;2023-06-01T07:00:42;12.60;;;7.85;;
78027;SDS011;67235;45.638;11.714;2023-06-01T07:03:08;13.93;;;9.05;;
78027;SDS011;67235;45.638;11.714;2023-06-01T07:05:34;12.97;;;8.23;;
78027;SDS011;67235;45.638;11.714;2023-06-01T07:08:01;13.00;;;8.15;;
78027;SDS011;67235;45.638;11.714;2023-06-01T07:10:26;14.27;;;8.30;;
78027;SDS011;67235;45.638;11.714;2023-06-01T07:12:52;14.67;;;8.47;;
78027;SDS011;67235;45.638;11.714;2023-06-01T07:15:18;12.32;;;8.45;;
78027;SDS011;67235;45.638;11.714;2023-06-01T07:17:44;13.88;;;8.82;;
78027;SDS011;67235;45.638;11.714;2023-06-01T07:20:10;13.97;;;9.20;;
78027;SDS011;67235;45.638;11.714;2023-06-01T07:22:37;15.82;;;10.07;;
78027;SDS011;67235;45.638;11.714;2023-06-01T07:25:04;16.08;;;9.45;;
78027;SDS011;67235;45.638;11.714;2023-06-01T07:27:30;16.40;;;10.10;;
78027;SDS011;67235;45.638;11.714;2023-06-01T07:30:00;15.65;;;10.18;;
78027;SDS011;67235;45.638;11.714;2023-06-01T07:32:29;15.80;;;10.00;;
78027;SDS011;67235;45.638;11.714;2023-06-01T07:34:55;15.98;;;9.45;;
78027;SDS011;67235;45.638;11.714;2023-06-01T07:37:23;13.75;;;8.90;;
78027;SDS011;67235;45.638;11.714;2023-06-01T07:39:51;15.15;;;9.10;;
78027;SDS011;67235;45.638;11.714;2023-06-01T07:42:17;11.97;;;9.03;;
78027;SDS011;67235;45.638;11.714;2023-06-01T07:44:44;11.13;;;6.93;;
78027;SDS011;67235;45.638;11.714;2023-06-01T07:47:10;9.82;;;6.25;;
78027;SDS011;67235;45.638;11.714;2023-06-01T07:49:36;10.10;;;6.90;;
78027;SDS011;67235;45.638;11.714;2023-06-01T07:52:03;10.50;;;7.28;;
78027;SDS011;67235;45.638;11.714;2023-06-01T07:54:30;11.50;;;6.95;;
78027;SDS011;67235;45.638;11.714;2023-06-01T07:56:56;11.35;;;7.40;;
78027;SDS011;67235;45.638;11.714;2023-06-01T07:59:22;11.52;;;7.60;;
78027;SDS011;67235;45.638;11.714;2023-06-01T08:01:53;9.93;;;6.53;;
78027;SDS011;67235;45.638;11.714;2023-06-01T08:04:20;10.80;;;7.30;;
78027;SDS011;67235;45.638;11.714;2023-06-01T08:06:46;12.00;;;7.53;;
78027;SDS011;67235;45.638;11.714;2023-06-01T08:09:13;11.07;;;7.25;;
78027;SDS011;67235;45.638;11.714;2023-06-01T08:11:39;12.10;;;7.25;;
78027;SDS011;67235;45.638;11.714;2023-06-01T08:14:05;10.93;;;7.20;;
78027;SDS011;67235;45.638;11.714;2023-06-01T08:16:34;10.43;;;7.35;;
78027;SDS011;67235;45.638;11.714;2023-06-01T08:19:00;11.50;;;6.60;;
78027;SDS011;67235;45.638;11.714;2023-06-01T08:21:26;8.88;;;5.57;;
78027;SDS011;67235;45.638;11.714;2023-06-01T08:23:52;11.87;;;6.30;;
78027;SDS011;67235;45.638;11.714;2023-06-01T08:26:22;10.05;;;6.07;;
78027;SDS011;67235;45.638;11.714;2023-06-01T08:28:48;9.43;;;6.53;;
78027;SDS011;67235;45.638;11.714;2023-06-01T08:31:21;10.85;;;5.78;;
78027;SDS011;67235;45.638;11.714;2023-06-01T08:33:49;9.18;;;6.00;;
78027;SDS011;67235;45.638;11.714;2023-06-01T08:36:19;10.13;;;6.27;;
78027;SDS011;67235;45.638;11.714;2023-06-01T08:38:45;8.32;;;6.00;;
78027;SDS011;67235;45.638;11.714;2023-06-01T08:41:14;10.70;;;6.93;;
78027;SDS011;67235;45.638;11.714;2023-06-01T08:43:53;10.10;;;6.57;;
78027;SDS011;67235;45.638;11.714;2023-06-01T08:46:23;9.77;;;5.97;;
78027;SDS011;67235;45.638;11.714;2023-06-01T08:48:52;10.67;;;6.60;;
78027;SDS011;67235;45.638;11.714;2023-06-01T08:51:21;10.52;;;5.95;;
78027;SDS011;67235;45.638;11.714;2023-06-01T08:53:48;12.27;;;6.32;;
78027;SDS011;67235;45.638;11.714;2023-06-01T08:56:15;9.82;;;6.32;;
78027;SDS011;67235;45.638;11.714;2023-06-01T08:58:42;9.95;;;6.13;;
78027;SDS011;67235;45.638;11.714;2023-06-01T09:01:12;9.40;;;6.00;;
78027;SDS011;67235;45.638;11.714;2023-06-01T09:03:43;10.27;;;6.10;;
78027;SDS011;67235;45.638;11.714;2023-06-01T09:06:10;9.52;;;5.88;;
78027;SDS011;67235;45.638;11.714;2023-06-01T09:08:36;10.38;;;6.50;;
78027;SDS011;67235;45.638;11.714;2023-06-01T09:11:03;10.32;;;7.50;;
78027;SDS011;67235;45.638;11.714;2023-06-01T09:13:36;10.37;;;6.80;;
78027;SDS011;67235;45.638;11.714;2023-06-01T09:16:06;12.68;;;6.88;;
78027;SDS011;67235;45.638;11.714;2023-06-01T09:18:33;10.25;;;6.53;;
78027;SDS011;67235;45.638;11.714;2023-06-01T09:23:38;9.32;;;6.47;;
78027;SDS011;67235;45.638;11.714;2023-06-01T09:26:08;10.70;;;6.90;;
78027;SDS011;67235;45.638;11.714;2023-06-01T09:28:55;11.50;;;7.18;;
78027;SDS011;67235;45.638;11.714;2023-06-01T09:31:35;10.20;;;6.43;;
78027;SDS011;67235;45.638;11.714;2023-06-01T09:34:02;11.45;;;6.50;;
78027;SDS011;67235;45.638;11.714;2023-06-01T09:36:29;10.40;;;6.28;;
78027;SDS011;67235;45.638;11.714;2023-06-01T09:39:05;8.77;;;6.50;;
78027;SDS011;67235;45.638;11.714;2023-06-01T09:44:22;10.02;;;5.72;;
78027;SDS011;67235;45.638;11.714;2023-06-01T09:46:51;10.15;;;6.47;;
78027;SDS011;67235;45.638;11.714;2023-06-01T09:49:20;10.57;;;7.00;;
78027;SDS011;67235;45.638;11.714;2023-06-01T09:54:28;9.98;;;6.30;;
78027;SDS011;67235;45.638;11.714;2023-06-01T09:56:56;11.65;;;6.60;;
78027;SDS011;67235;45.638;11.714;2023-06-01T09:59:23;9.23;;;5.80;;
78027;SDS011;67235;45.638;11.714;2023-06-01T10:01:53;8.95;;;5.53;;
78027;SDS011;67235;45.638;11.714;2023-06-01T10:04:23;9.83;;;6.03;;
78027;SDS011;67235;45.638;11.714;2023-06-01T10:06:54;10.93;;;6.13;;
78027;SDS011;67235;45.638;11.714;2023-06-01T10:09:22;10.48;;;6.65;;
78027;SDS011;67235;45.638;11.714;2023-06-01T10:11:52;9.18;;;6.55;;
78027;SDS011;67235;45.638;11.714;2023-06-01T10:14:22;9.93;;;6.45;;
78027;SDS011;67235;45.638;11.714;2023-06-01T10:16:50;9.63;;;6.77;;
78027;SDS011;67235;45.638;11.714;2023-06-01T10:19:17;11.13;;;5.88;;
78027;SDS011;67235;45.638;11.714;2023-06-01T10:21:44;10.27;;;5.80;;
78027;SDS011;67235;45.638;11.714;2023-06-01T10:24:13;11.77;;;7.00;;
78027;SDS011;67235;45.638;11.714;2023-06-01T10:29:35;10.70;;;7.13;;
78027;SDS011;67235;45.638;11.714;2023-06-01T10:32:01;9.77;;;6.45;;
78027;SDS011;67235;45.638;11.714;2023-06-01T10:34:41;10.93;;;6.60;;
78027;SDS011;67235;45.638;11.714;2023-06-01T10:39:34;10.50;;;6.00;;
78027;SDS011;67235;45.638;11.714;2023-06-01T10:47:05;12.82;;;6.50;;
78027;SDS011;67235;45.638;11.714;2023-06-01T10:52:36;11.30;;;6.50;;
78027;SDS011;67235;45.638;11.714;2023-06-01T10:57:32;10.23;;;6.43;;
78027;SDS011;67235;45.638;11.714;2023-06-01T11:02:48;8.70;;;6.07;;
78027;SDS011;67235;45.638;11.714;2023-06-01T11:13:19;9.67;;;6.47;;
78027;SDS011;67235;45.638;11.714;2023-06-01T11:18:57;9.95;;;6.90;;
78027;SDS011;67235;45.638;11.714;2023-06-01T11:21:31;9.90;;;6.07;;
78027;SDS011;67235;45.638;11.714;2023-06-01T11:24:06;11.45;;;6.50;;
78027;SDS011;67235;45.638;11.714;2023-06-01T11:26:48;10.37;;;6.63;;
78027;SDS011;67235;45.638;11.714;2023-06-01T11:29:18;8.98;;;6.57;;
78027;SDS011;67235;45.638;11.714;2023-06-01T11:34:14;9.02;;;5.80;;
78027;SDS011;67235;45.638;11.714;2023-06-01T11:36:48;10.13;;;6.32;;
78027;SDS011;67235;45.638;11.714;2023-06-01T11:39:19;9.67;;;6.30;;
78027;SDS011;67235;45.638;11.714;2023-06-01T11:41:47;10.05;;;6.68;;
78027;SDS011;67235;45.638;11.714;2023-06-01T11:44:18;10.38;;;6.72;;
78027;SDS011;67235;45.638;11.714;2023-06-01T11:46:51;10.77;;;6.38;;
78027;SDS011;67235;45.638;11.714;2023-06-01T11:49:18;9.88;;;6.82;;
78027;SDS011;67235;45.638;11.714;2023-06-01T11:51:45;10.50;;;7.20;;
78027;SDS011;67235;45.638;11.714;2023-06-01T11:54:11;9.23;;;6.53;;
78027;SDS011;67235;45.638;11.714;2023-06-01T11:56:37;13.30;;;6.55;;
78027;SDS011;67235;45.638;11.714;2023-06-01T11:59:06;9.27;;;6.07;;
78027;SDS011;67235;45.638;11.714;2023-06-01T12:01:37;9.60;;;6.30;;
78027;SDS011;67235;45.638;11.714;2023-06-01T12:04:11;9.57;;;6.30;;
78027;SDS011;67235;45.638;11.714;2023-06-01T12:06:45;9.38;;;6.03;;
78027;SDS011;67235;45.638;11.714;2023-06-01T12:09:14;11.88;;;6.80;;
78027;SDS011;67235;45.638;11.714;2023-06-01T12:11:42;12.07;;;6.25;;
78027;SDS011;67235;45.638;11.714;2023-06-01T12:14:09;12.03;;;6.40;;
78027;SDS011;67235;45.638;11.714;2023-06-01T12:16:52;11.43;;;6.85;;
78027;SDS011;67235;45.638;11.714;2023-06-01T12:19:19;10.52;;;6.43;;
78027;SDS011;67235;45.638;11.714;2023-06-01T12:21:51;10.13;;;6.93;;
78027;SDS011;67235;45.638;11.714;2023-06-01T12:24:32;11.10;;;6.43;;
78027;SDS011;67235;45.638;11.714;2023-06-01T12:26:59;8.90;;;5.80;;
78027;SDS011;67235;45.638;11.714;2023-06-01T12:29:34;11.38;;;5.82;;
78027;SDS011;67235;45.638;11.714;2023-06-01T12:32:07;8.93;;;6.10;;
78027;SDS011;67235;45.638;11.714;2023-06-01T12:34:38;9.57;;;5.70;;
78027;SDS011;67235;45.638;11.714;2023-06-01T12:37:15;8.35;;;5.68;;
78027;SDS011;67235;45.638;11.714;2023-06-01T12:39:43;8.60;;;5.50;;
78027;SDS011;67235;45.638;11.714;2023-06-01T12:42:18;8.70;;;5.45;;
78027;SDS011;67235;45.638;11.714;2023-06-01T12:45:00;10.00;;;5.22;;
78027;SDS011;67235;45.638;11.714;2023-06-01T12:47:34;10.48;;;5.57;;
78027;SDS011;67235;45.638;11.714;2023-06-01T12:50:12;9.82;;;4.78;;
78027;SDS011;67235;45.638;11.714;2023-06-01T12:52:39;11.67;;;5.93;;
78027;SDS011;67235;45.638;11.714;2023-06-01T12:55:10;12.30;;;5.22;;
78027;SDS011;67235;45.638;11.714;2023-06-01T12:57:36;7.10;;;4.60;;
78027;SDS011;67235;45.638;11.714;2023-06-01T13:00:05;7.38;;;5.03;;
78027;SDS011;67235;45.638;11.714;2023-06-01T13:02:32;10.00;;;5.40;;
78027;SDS011;67235;45.638;11.714;2023-06-01T13:04:58;7.53;;;4.83;;
78027;SDS011;67235;45.638;11.714;2023-06-01T13:07:24;8.15;;;4.70;;
78027;SDS011;67235;45.638;11.714;2023-06-01T13:09:50;7.72;;;4.80;;
78027;SDS011;67235;45.638;11.714;2023-06-01T13:12:16;8.35;;;4.70;;
78027;SDS011;67235;45.638;11.714;2023-06-01T13:14:43;8.57;;;5.25;;
78027;SDS011;67235;45.638;11.714;2023-06-01T13:17:09;10.30;;;6.70;;
78027;SDS011;67235;45.638;11.714;2023-06-01T13:19:35;9.57;;;5.50;;
78027;SDS011;67235;45.638;11.714;2023-06-01T13:22:01;9.48;;;5.07;;
78027;SDS011;67235;45.638;11.714;2023-06-01T13:24:29;9.95;;;5.22;;
78027;SDS011;67235;45.638;11.714;2023-06-01T13:26:55;9.57;;;5.30;;
78027;SDS011;67235;45.638;11.714;2023-06-01T13:29:21;8.85;;;5.25;;
78027;SDS011;67235;45.638;11.714;2023-06-01T13:31:47;7.95;;;4.75;;
78027;SDS011;67235;45.638;11.714;2023-06-01T13:34:14;7.70;;;5.20;;
78027;SDS011;67235;45.638;11.714;2023-06-01T13:36:45;9.13;;;4.97;;
78027;SDS011;67235;45.638;11.714;2023-06-01T13:39:12;9.65;;;5.03;;
78027;SDS011;67235;45.638;11.714;2023-06-01T13:41:39;12.45;;;5.20;;
78027;SDS011;67235;45.638;11.714;2023-06-01T13:44:06;7.80;;;4.97;;
78027;SDS011;67235;45.638;11.714;2023-06-01T13:46:33;10.80;;;5.87;;
78027;SDS011;67235;45.638;11.714;2023-06-01T13:48:58;12.27;;;6.00;;
78027;SDS011;67235;45.638;11.714;2023-06-01T13:51:24;7.35;;;4.38;;
78027;SDS011;67235;45.638;11.714;2023-06-01T13:53:50;7.47;;;4.40;;
78027;SDS011;67235;45.638;11.714;2023-06-01T13:56:16;8.83;;;4.50;;
78027;SDS011;67235;45.638;11.714;2023-06-01T13:58:42;7.85;;;4.10;;
78027;SDS011;67235;45.638;11.714;2023-06-01T14:01:08;7.60;;;3.97;;
78027;SDS011;67235;45.638;11.714;2023-06-01T14:03:36;8.20;;;4.40;;
78027;SDS011;67235;45.638;11.714;2023-06-01T14:06:02;8.05;;;4.50;;
78027;SDS011;67235;45.638;11.714;2023-06-01T14:08:29;7.57;;;4.40;;
78027;SDS011;67235;45.638;11.714;2023-06-01T14:10:55;8.52;;;4.20;;
78027;SDS011;67235;45.638;11.714;2023-06-01T14:13:21;8.53;;;4.17;;
78027;SDS011;67235;45.638;11.714;2023-06-01T14:16:06;7.45;;;3.90;;
78027;SDS011;67235;45.638;11.714;2023-06-01T14:18:32;8.02;;;3.80;;
78027;SDS011;67235;45.638;11.714;2023-06-01T14:20:58;6.63;;;3.60;;
78027;SDS011;67235;45.638;11.714;2023-06-01T14:23:27;6.70;;;3.80;;
78027;SDS011;67235;45.638;11.714;2023-06-01T14:25:54;8.35;;;4.30;;
78027;SDS011;67235;45.638;11.714;2023-06-01T14:28:20;8.32;;;4.00;;
78027;SDS011;67235;45.638;11.714;2023-06-01T14:30:46;7.10;;;3.67;;
78027;SDS011;67235;45.638;11.714;2023-06-01T14:33:12;7.33;;;3.57;;
78027;SDS011;67235;45.638;11.714;2023-06-01T14:35:38;6.80;;;3.90;;
78027;SDS011;67235;45.638;11.714;2023-06-01T14:38:04;7.93;;;4.63;;
78027;SDS011;67235;45.638;11.714;2023-06-01T14:40:34;7.50;;;4.05;;
78027;SDS011;67235;45.638;11.714;2023-06-01T14:43:00;8.07;;;4.18;;
78027;SDS011;67235;45.638;11.714;2023-06-01T14:45:27;7.15;;;4.05;;
78027;SDS011;67235;45.638;11.714;2023-06-01T14:47:53;8.37;;;4.60;;
78027;SDS011;67235;45.638;11.714;2023-06-01T14:50:19;7.35;;;4.30;;
78027;SDS011;67235;45.638;11.714;2023-06-01T14:52:45;6.95;;;3.90;;
78027;SDS011;67235;45.638;11.714;2023-06-01T14:55:12;6.57;;;4.00;;
78027;SDS011;67235;45.638;11.714;2023-06-01T14:57:48;6.73;;;3.90;;
78027;SDS011;67235;45.638;11.714;2023-06-01T15:00:14;7.45;;;4.10;;
78027;SDS011;67235;45.638;11.714;2023-06-01T15:02:44;8.27;;;4.30;;
78027;SDS011;67235;45.638;11.714;2023-06-01T15:06:11;7.93;;;4.05;;
78027;SDS011;67235;45.638;11.714;2023-06-01T15:08:37;7.75;;;4.43;;
78027;SDS011;67235;45.638;11.714;2023-06-01T15:11:03;7.50;;;4.20;;
78027;SDS011;67235;45.638;11.714;2023-06-01T15:13:29;7.22;;;4.25;;
78027;SDS011;67235;45.638;11.714;2023-06-01T15:19:20;7.30;;;4.07;;
78027;SDS011;67235;45.638;11.714;2023-06-01T15:21:49;7.15;;;4.43;;